createdAt,value
2018-03-30T00:02:13.457Z,77.71
2018-03-30T00:04:40.859Z,77.48
2018-03-30T00:07:08.258Z,77.31
2018-03-30T00:09:47.463Z,77.19
2018-03-30T00:12:14.865Z,77.11
2018-03-30T00:14:42.250Z,77.14
2018-03-30T00:17:09.651Z,77.08
2018-03-30T00:19:37.067Z,77.09
2018-03-30T00:22:04.688Z,77.16
2018-03-30T00:24:32.130Z,77.21
2018-03-30T00:26:59.535Z,77.21
2018-03-30T00:29:27.021Z,77.37
2018-03-30T00:31:54.423Z,77.62
2018-03-30T00:34:21.850Z,78.14
2018-03-30T00:36:49.289Z,78.58
2018-03-30T00:39:16.705Z,78.83
2018-03-30T00:41:44.087Z,78.74
2018-03-30T00:44:11.489Z,78.48
2018-03-30T00:46:38.891Z,78.25
2018-03-30T00:49:06.295Z,78.31
2018-03-30T00:51:33.703Z,78.82
2018-03-30T00:54:01.114Z,79.89
2018-03-30T00:56:28.506Z,80.67
2018-03-30T00:58:55.946Z,81.29
2018-03-30T01:01:23.444Z,81.65
2018-03-30T01:03:50.894Z,82.27
2018-03-30T01:06:18.290Z,83.56
2018-03-30T01:08:45.699Z,84.69
2018-03-30T01:11:13.086Z,85.39
2018-03-30T01:13:40.524Z,86.49
2018-03-30T01:16:07.914Z,86.79
2018-03-30T01:18:35.322Z,87.15
2018-03-30T01:21:02.778Z,87.90
2018-03-30T01:23:30.183Z,88.31
2018-03-30T01:25:57.583Z,88.70
2018-03-30T01:28:24.979Z,89.12
2018-03-30T01:30:52.403Z,89.78
2018-03-30T01:33:19.811Z,90.15
2018-03-30T01:35:47.311Z,90.19
2018-03-30T01:38:14.739Z,90.07
2018-03-30T01:40:42.128Z,90.21
2018-03-30T01:43:09.523Z,89.98
2018-03-30T01:45:37.041Z,90.05
2018-03-30T01:48:04.434Z,90.37
2018-03-30T01:50:31.834Z,90.69
2018-03-30T01:52:59.222Z,90.70
2018-03-30T01:55:26.634Z,90.59
2018-03-30T01:57:54.066Z,90.53
2018-03-30T02:00:21.470Z,90.59
2018-03-30T02:02:48.868Z,90.35
2018-03-30T02:05:16.283Z,90.21
2018-03-30T02:07:43.678Z,90.14
2018-03-30T02:10:11.078Z,89.80
2018-03-30T02:12:38.511Z,89.41
2018-03-30T02:15:05.950Z,89.01
2018-03-30T02:17:33.343Z,89.13
2018-03-30T02:20:00.751Z,89.02
2018-03-30T02:22:28.151Z,88.98
2018-03-30T02:24:55.556Z,89.39
2018-03-30T02:27:23.027Z,89.88
2018-03-30T02:29:50.426Z,90.58
2018-03-30T02:32:17.828Z,90.87
2018-03-30T02:34:45.226Z,91.88
2018-03-30T02:37:12.628Z,92.09
2018-03-30T02:39:40.038Z,92.04
2018-03-30T02:42:07.439Z,92.17
2018-03-30T02:44:34.842Z,92.36
2018-03-30T02:47:02.247Z,91.92
2018-03-30T02:49:29.652Z,91.82
2018-03-30T02:51:57.049Z,92.22
2018-03-30T02:54:24.548Z,92.75
2018-03-30T02:56:51.957Z,92.87
2018-03-30T02:59:19.357Z,92.50
2018-03-30T03:01:46.745Z,92.11
2018-03-30T03:06:55.102Z,91.25
2018-03-30T03:09:22.489Z,90.36
2018-03-30T03:11:49.881Z,89.62
2018-03-30T03:14:17.275Z,88.47
2018-03-30T03:16:44.742Z,88.00
2018-03-30T03:19:12.194Z,88.09
2018-03-30T03:21:39.607Z,88.24
2018-03-30T03:24:06.995Z,88.51
2018-03-30T03:26:34.398Z,88.61
2018-03-30T03:29:01.778Z,89.02
2018-03-30T03:31:29.188Z,89.12
2018-03-30T03:33:56.586Z,89.61
2018-03-30T03:36:23.980Z,90.40
2018-03-30T03:38:51.374Z,90.34
2018-03-30T03:41:18.947Z,90.54
2018-03-30T03:43:46.323Z,90.21
2018-03-30T03:46:13.737Z,90.21
2018-03-30T03:48:41.131Z,89.68
2018-03-30T03:51:08.551Z,89.49
2018-03-30T03:53:35.923Z,90.12
2018-03-30T03:56:03.320Z,90.55
2018-03-30T03:58:30.715Z,90.30
2018-03-30T04:00:58.122Z,90.93
2018-03-30T04:03:25.618Z,91.19
2018-03-30T04:05:53.079Z,90.85
2018-03-30T04:08:20.478Z,90.79
2018-03-30T04:10:47.870Z,90.92
2018-03-30T04:13:15.274Z,91.15
2018-03-30T04:15:42.658Z,91.40
2018-03-30T04:18:10.069Z,91.32
2018-03-30T04:20:37.459Z,91.40
2018-03-30T04:23:04.966Z,91.76
2018-03-30T04:25:32.353Z,91.45
2018-03-30T04:27:59.763Z,91.22
2018-03-30T04:30:27.255Z,91.23
2018-03-30T04:32:54.642Z,90.77
2018-03-30T04:35:22.143Z,90.59
2018-03-30T04:37:49.543Z,90.36
2018-03-30T04:40:16.950Z,90.92
2018-03-30T04:42:44.387Z,90.66
2018-03-30T04:45:11.822Z,90.36
2018-03-30T04:47:39.254Z,90.18
2018-03-30T04:50:06.630Z,89.99
2018-03-30T04:52:34.030Z,90.43
2018-03-30T04:55:01.419Z,90.87
2018-03-30T04:57:28.815Z,90.88
2018-03-30T04:59:56.211Z,90.97
2018-03-30T05:02:23.606Z,90.98
2018-03-30T05:04:51.011Z,91.38
2018-03-30T05:07:18.411Z,91.56
2018-03-30T05:09:45.799Z,91.42
2018-03-30T05:12:13.195Z,91.59
2018-03-30T05:14:40.588Z,91.97
2018-03-30T05:17:07.975Z,92.60
2018-03-30T05:19:35.374Z,92.85
2018-03-30T05:22:02.799Z,93.09
2018-03-30T05:24:30.198Z,93.45
2018-03-30T05:26:57.590Z,93.65
2018-03-30T05:29:24.994Z,93.67
2018-03-30T05:31:52.383Z,93.48
2018-03-30T05:34:19.797Z,92.92
2018-03-30T05:36:47.168Z,93.08
2018-03-30T05:39:14.562Z,93.36
2018-03-30T05:41:41.950Z,93.24
2018-03-30T05:44:09.448Z,93.45
2018-03-30T05:46:36.890Z,93.80
2018-03-30T05:49:04.290Z,94.09
2018-03-30T05:51:31.682Z,94.34
2018-03-30T05:53:59.083Z,94.52
2018-03-30T05:56:26.474Z,94.45
2018-03-30T05:58:53.884Z,94.64
2018-03-30T06:01:21.339Z,94.61
2018-03-30T06:03:48.726Z,94.66
2018-03-30T06:06:16.119Z,94.55
2018-03-30T06:08:43.591Z,94.21
2018-03-30T06:11:11.046Z,93.96
2018-03-30T06:13:38.503Z,93.71
2018-03-30T06:16:05.900Z,93.15
2018-03-30T06:18:33.291Z,93.52
2018-03-30T06:21:00.686Z,93.30
2018-03-30T06:23:28.083Z,93.49
2018-03-30T06:25:55.486Z,93.90
2018-03-30T06:28:22.870Z,93.85
2018-03-30T06:30:50.283Z,93.34
2018-03-30T06:33:17.668Z,92.98
2018-03-30T06:35:45.091Z,93.04
2018-03-30T06:38:12.479Z,93.20
2018-03-30T06:40:39.877Z,93.37
2018-03-30T06:43:07.271Z,93.05
2018-03-30T06:45:34.763Z,92.78
2018-03-30T06:48:02.235Z,92.56
2018-03-30T06:50:29.671Z,92.29
2018-03-30T06:52:57.064Z,91.74
2018-03-30T06:55:24.458Z,91.67
2018-03-30T06:57:51.954Z,91.79
2018-03-30T07:00:19.427Z,91.46
2018-03-30T07:02:46.821Z,91.01
2018-03-30T07:05:14.227Z,90.78
2018-03-30T07:07:41.618Z,90.60
2018-03-30T07:10:09.126Z,90.56
2018-03-30T07:12:36.574Z,91.20
2018-03-30T07:15:03.970Z,91.40
2018-03-30T07:17:31.370Z,91.48
2018-03-30T07:19:58.778Z,91.50
2018-03-30T07:22:26.171Z,91.80
2018-03-30T07:24:53.564Z,91.84
2018-03-30T07:27:20.958Z,91.70
2018-03-30T07:29:48.356Z,91.89
2018-03-30T07:32:15.755Z,92.07
2018-03-30T07:34:43.148Z,92.53
2018-03-30T07:37:10.550Z,93.08
2018-03-30T07:39:37.938Z,93.18
2018-03-30T07:42:05.391Z,93.00
2018-03-30T07:44:32.850Z,92.99
2018-03-30T07:47:00.306Z,92.81
2018-03-30T07:49:27.760Z,92.35
2018-03-30T07:51:55.214Z,92.19
2018-03-30T07:54:22.604Z,92.07
2018-03-30T07:56:50.002Z,92.42
2018-03-30T07:59:17.397Z,92.10
2018-03-30T08:01:45.718Z,92.05
2018-03-30T08:04:13.115Z,91.88
2018-03-30T08:06:40.679Z,91.40
2018-03-30T08:09:08.340Z,91.16
2018-03-30T08:11:35.723Z,91.72
2018-03-30T08:14:03.254Z,91.67
2018-03-30T08:16:30.660Z,91.72
2018-03-30T08:18:58.055Z,91.55
2018-03-30T08:21:25.512Z,91.69
2018-03-30T08:23:52.966Z,91.67
2018-03-30T08:26:21.291Z,91.57
2018-03-30T08:28:48.687Z,91.43
2018-03-30T08:31:16.074Z,90.81
2018-03-30T08:33:43.512Z,90.29
2018-03-30T08:36:10.953Z,90.60
2018-03-30T08:38:38.355Z,90.45
2018-03-30T08:41:05.747Z,90.50
2018-03-30T08:43:33.147Z,89.54
2018-03-30T08:46:00.587Z,89.06
2018-03-30T08:48:28.047Z,89.52
2018-03-30T08:50:55.490Z,89.09
2018-03-30T08:53:22.882Z,88.69
2018-03-30T08:55:50.278Z,88.23
2018-03-30T08:58:17.682Z,88.29
2018-03-30T09:00:45.110Z,88.03
2018-03-30T09:03:12.509Z,88.66
2018-03-30T09:05:39.932Z,88.82
2018-03-30T09:08:07.383Z,88.28
2018-03-30T09:10:34.797Z,86.90
2018-03-30T09:13:02.193Z,86.68
2018-03-30T09:15:29.582Z,85.06
2018-03-30T09:17:57.010Z,84.04
2018-03-30T09:20:24.405Z,83.44
2018-03-30T09:22:51.850Z,83.21
2018-03-30T09:25:19.321Z,83.32
2018-03-30T09:27:46.697Z,82.84
2018-03-30T09:30:14.099Z,82.64
2018-03-30T09:32:41.482Z,82.64
2018-03-30T09:35:08.875Z,83.10
2018-03-30T09:37:36.254Z,82.38
2018-03-30T09:40:03.658Z,79.90
2018-03-30T09:42:31.034Z,77.91
2018-03-30T09:44:58.469Z,78.15
2018-03-30T09:47:25.843Z,77.27
2018-03-30T09:49:53.265Z,75.40
2018-03-30T09:52:20.754Z,75.03
2018-03-30T09:54:48.152Z,73.67
2018-03-30T09:57:15.539Z,73.48
2018-03-30T09:59:42.956Z,72.75
2018-03-30T10:02:10.344Z,72.29
2018-03-30T10:04:43.263Z,72.89
2018-03-30T10:07:10.646Z,70.39
2018-03-30T10:09:38.040Z,69.77
2018-03-30T10:12:05.435Z,68.01
2018-03-30T10:14:32.857Z,69.11
2018-03-30T10:17:00.255Z,68.51
2018-03-30T10:19:27.739Z,67.98
2018-03-30T10:21:55.128Z,68.49
2018-03-30T10:24:22.541Z,67.26
2018-03-30T10:26:49.931Z,66.64
2018-03-30T10:29:17.319Z,66.43
2018-03-30T10:31:44.802Z,68.00
2018-03-30T10:34:12.194Z,65.81
2018-03-30T10:36:39.609Z,65.71
2018-03-30T10:39:07.070Z,64.88
2018-03-30T10:41:34.467Z,64.45
2018-03-30T10:44:01.891Z,64.35
2018-03-30T10:46:29.290Z,65.64
2018-03-30T10:48:56.703Z,64.12
2018-03-30T10:51:24.094Z,64.86
2018-03-30T10:53:51.506Z,64.96
2018-03-30T10:56:18.883Z,64.59
2018-03-30T10:58:46.318Z,64.58
2018-03-30T11:01:13.782Z,65.86
2018-03-30T11:03:41.234Z,64.37
2018-03-30T11:06:08.695Z,64.39
2018-03-30T11:08:36.094Z,62.24
2018-03-30T11:11:03.489Z,62.18
2018-03-30T11:13:30.891Z,61.39
2018-03-30T11:15:58.315Z,61.79
2018-03-30T11:18:25.715Z,61.20
2018-03-30T11:20:53.115Z,63.57
2018-03-30T11:23:20.512Z,61.49
2018-03-30T11:25:47.982Z,63.30
2018-03-30T11:28:15.455Z,60.47
2018-03-30T11:30:42.854Z,61.07
2018-03-30T11:35:37.475Z,61.45
2018-03-30T11:38:04.871Z,60.71
2018-03-30T11:40:32.334Z,61.02
2018-03-30T11:42:59.730Z,60.78
2018-03-30T11:45:27.119Z,61.11
2018-03-30T11:47:54.571Z,61.57
2018-03-30T11:50:21.958Z,60.53
2018-03-30T11:52:49.363Z,60.56
2018-03-30T11:55:16.766Z,59.52
2018-03-30T11:57:44.163Z,58.18
2018-03-30T12:00:11.579Z,57.53
2018-03-30T12:02:38.983Z,58.41
2018-03-30T12:05:06.390Z,56.36
2018-03-30T12:07:33.797Z,54.13
2018-03-30T12:10:01.184Z,55.35
2018-03-30T12:12:28.578Z,55.36
2018-03-30T12:14:55.976Z,56.14
2018-03-30T12:17:23.391Z,54.61
2018-03-30T12:19:50.783Z,55.21
2018-03-30T12:22:18.187Z,53.97
2018-03-30T12:24:45.582Z,52.98
2018-03-30T12:27:12.977Z,53.54
2018-03-30T12:29:40.390Z,53.13
2018-03-30T12:32:07.796Z,54.31
2018-03-30T12:34:35.182Z,51.83
2018-03-30T12:37:02.578Z,52.96
2018-03-30T12:39:29.974Z,51.56
2018-03-30T12:41:57.375Z,49.54
2018-03-30T12:44:24.767Z,50.11
2018-03-30T12:46:52.166Z,50.58
2018-03-30T12:49:19.556Z,50.22
2018-03-30T12:51:47.043Z,49.66
2018-03-30T12:54:14.430Z,48.66
2018-03-30T12:56:41.851Z,51.65
2018-03-30T12:59:09.257Z,50.55
2018-03-30T13:01:36.660Z,52.03
2018-03-30T13:04:04.054Z,50.56
2018-03-30T13:06:31.492Z,52.44
2018-03-30T13:08:58.887Z,50.06
2018-03-30T13:11:26.287Z,49.75
2018-03-30T13:13:53.715Z,48.92
2018-03-30T13:16:21.100Z,47.00
2018-03-30T13:18:48.494Z,45.79
2018-03-30T13:21:15.919Z,46.95
2018-03-30T13:23:43.385Z,46.52
2018-03-30T13:26:10.763Z,45.28
2018-03-30T13:28:38.168Z,47.87
2018-03-30T13:31:05.643Z,46.23
2018-03-30T13:33:33.103Z,45.86
2018-03-30T13:36:00.499Z,46.93
2018-03-30T13:38:27.899Z,46.57
2018-03-30T13:40:55.443Z,46.11
2018-03-30T13:43:22.943Z,45.32
2018-03-30T13:45:50.407Z,46.08
2018-03-30T13:48:17.806Z,46.06
2018-03-30T13:50:49.718Z,49.26
2018-03-30T13:53:19.670Z,46.20
2018-03-30T13:55:48.561Z,46.43
2018-03-30T13:58:27.659Z,46.91
2018-03-30T14:00:57.503Z,44.50
2018-03-30T14:03:26.877Z,42.92
2018-03-30T14:05:57.931Z,43.71
2018-03-30T14:08:36.037Z,43.92
2018-03-30T14:11:12.182Z,44.91
2018-03-30T14:13:39.578Z,45.13
2018-03-30T14:16:07.919Z,45.46
2018-03-30T14:18:49.051Z,45.36
2018-03-30T14:21:19.240Z,46.00
2018-03-30T14:23:47.503Z,46.39
2018-03-30T14:26:34.727Z,48.05
2018-03-30T14:29:02.170Z,46.91
2018-03-30T14:31:31.394Z,47.14
2018-03-30T14:33:58.796Z,47.48
2018-03-30T14:42:47.290Z,48.23
2018-03-30T14:45:15.391Z,46.64
2018-03-30T14:47:43.562Z,48.09
2018-03-30T14:50:18.803Z,48.40
2018-03-30T14:52:53.101Z,48.69
2018-03-30T14:55:22.434Z,49.80
2018-03-30T14:57:56.661Z,50.48
2018-03-30T15:00:25.150Z,50.25
2018-03-30T15:02:55.154Z,50.27
2018-03-30T15:08:39.715Z,50.31
2018-03-30T15:14:35.359Z,51.95
2018-03-30T15:17:09.395Z,51.70
2018-03-30T15:19:53.444Z,50.95
2018-03-30T15:25:17.262Z,51.06
2018-03-30T15:27:45.478Z,51.93
2018-03-30T15:30:18.658Z,51.79
2018-03-30T15:35:46.459Z,52.39
2018-03-30T15:38:13.850Z,52.71
2018-03-30T15:40:41.244Z,52.54
2018-03-30T15:43:11.122Z,53.15
2018-03-30T15:45:47.090Z,53.83
2018-03-30T15:48:14.480Z,53.65
2018-03-30T15:50:41.874Z,52.92
2018-03-30T15:53:17.833Z,53.62
2018-03-30T15:55:45.230Z,53.98
2018-03-30T15:58:12.627Z,53.74
2018-03-30T16:00:40.015Z,54.39
2018-03-30T16:03:07.415Z,55.38
2018-03-30T16:05:34.906Z,54.60
2018-03-30T16:08:02.310Z,54.61
2018-03-30T16:10:30.475Z,55.14
2018-03-30T16:12:57.874Z,55.61
2018-03-30T16:15:25.265Z,55.76
2018-03-30T16:17:52.658Z,55.38
2018-03-30T16:20:19.530Z,56.54
2018-03-30T16:22:46.479Z,56.03
2018-03-30T16:25:13.326Z,56.79
2018-03-30T16:27:40.190Z,56.51
2018-03-30T16:30:07.047Z,56.71
2018-03-30T16:32:33.906Z,56.96
2018-03-30T16:35:00.799Z,56.45
2018-03-30T16:37:27.739Z,56.60
2018-03-30T16:39:54.716Z,56.36
2018-03-30T16:42:21.599Z,56.55
2018-03-30T16:44:48.454Z,56.46
2018-03-30T16:47:15.414Z,56.55
2018-03-30T16:49:42.282Z,56.89
2018-03-30T16:52:09.147Z,56.71
2018-03-30T16:54:36.047Z,56.95
2018-03-30T16:57:02.895Z,56.98
2018-03-30T16:59:29.799Z,57.20
2018-03-30T17:01:56.607Z,57.44
2018-03-30T17:04:23.470Z,57.02
2018-03-30T17:06:50.362Z,57.34
2018-03-30T17:09:17.227Z,57.34
2018-03-30T17:11:44.076Z,58.33
2018-03-30T17:14:10.928Z,58.40
2018-03-30T17:16:37.793Z,58.45
2018-03-30T17:19:04.656Z,59.35
2018-03-30T17:21:31.529Z,59.46
2018-03-30T17:23:58.470Z,59.39
2018-03-30T17:26:25.354Z,59.88
2018-03-30T17:28:52.303Z,60.33
2018-03-30T17:31:19.166Z,60.49
2018-03-30T17:33:46.025Z,60.11
2018-03-30T17:36:12.875Z,60.62
2018-03-30T17:38:39.730Z,60.71
2018-03-30T17:41:06.591Z,61.68
2018-03-30T17:43:33.447Z,61.43
2018-03-30T17:46:00.298Z,61.70
2018-03-30T17:48:27.147Z,62.18
2018-03-30T17:50:54.013Z,62.60
2018-03-30T17:53:20.893Z,62.75
2018-03-30T17:55:47.747Z,62.96
2018-03-30T17:58:20.731Z,62.98
2018-03-30T18:00:47.591Z,63.24
2018-03-30T18:03:14.434Z,63.24
2018-03-30T18:05:41.290Z,63.56
2018-03-30T18:08:08.186Z,63.89
2018-03-30T18:10:35.042Z,64.04
2018-03-30T18:13:01.891Z,64.60
2018-03-30T18:15:28.747Z,64.81
2018-03-30T18:17:55.615Z,64.99
2018-03-30T18:20:22.469Z,65.17
2018-03-30T18:22:49.310Z,65.34
2018-03-30T18:25:16.171Z,65.52
2018-03-30T18:27:43.013Z,65.83
2018-03-30T18:30:09.914Z,65.86
2018-03-30T18:32:36.853Z,65.92
2018-03-30T18:35:03.742Z,65.83
2018-03-30T18:37:30.582Z,65.79
2018-03-30T18:39:57.431Z,66.11
2018-03-30T18:42:24.335Z,66.35
2018-03-30T18:44:51.246Z,66.31
2018-03-30T18:47:18.087Z,66.37
2018-03-30T18:49:44.942Z,66.63
2018-03-30T18:52:11.793Z,66.64
2018-03-30T18:54:38.642Z,66.80
2018-03-30T18:57:05.491Z,66.65
2018-03-30T18:59:32.347Z,66.73
2018-03-30T19:01:59.202Z,66.90
2018-03-30T19:04:26.059Z,66.67
2018-03-30T19:06:52.915Z,66.65
2018-03-30T19:09:19.762Z,66.49
2018-03-30T19:11:46.704Z,66.58
2018-03-30T19:14:13.563Z,66.40
2018-03-30T19:16:40.430Z,66.26
2018-03-30T19:19:07.291Z,66.46
2018-03-30T19:21:34.143Z,66.20
2018-03-30T19:24:01.000Z,66.09
2018-03-30T19:26:27.965Z,66.35
2018-03-30T19:28:54.814Z,65.97
2018-03-30T19:31:21.674Z,66.20
2018-03-30T19:33:48.525Z,66.05
2018-03-30T19:36:15.382Z,66.17
2018-03-30T19:38:42.270Z,65.99
2018-03-30T19:41:09.174Z,65.97
2018-03-30T19:43:36.063Z,66.06
2018-03-30T19:46:02.938Z,66.08
2018-03-30T19:48:29.788Z,65.97
2018-03-30T19:50:56.643Z,65.93
2018-03-30T19:53:23.496Z,65.97
2018-03-30T19:55:50.366Z,65.89
2018-03-30T19:58:17.215Z,65.76
2018-03-30T20:00:44.075Z,65.66
2018-03-30T20:03:10.987Z,65.85
2018-03-30T20:05:37.840Z,65.57
2018-03-30T20:08:04.712Z,65.82
2018-03-30T20:10:31.629Z,65.86
2018-03-30T20:12:58.475Z,65.93
2018-03-30T20:15:25.330Z,65.74
2018-03-30T20:17:52.251Z,65.80
2018-03-30T20:20:19.113Z,65.80
2018-03-30T20:22:45.971Z,65.71
2018-03-30T20:25:12.827Z,65.77
2018-03-30T20:27:39.672Z,65.66
2018-03-30T20:30:06.534Z,65.76
2018-03-30T20:32:33.379Z,65.71
2018-03-30T20:35:00.231Z,65.81
2018-03-30T20:37:28.237Z,65.98
2018-03-30T20:39:55.080Z,65.79
2018-03-30T20:42:21.966Z,65.79
2018-03-30T20:44:48.823Z,65.72
2018-03-30T20:47:15.677Z,65.55
2018-03-30T20:49:42.612Z,65.37
2018-03-30T20:52:09.523Z,65.66
2018-03-30T20:54:36.380Z,65.68
2018-03-30T20:57:03.227Z,65.49
2018-03-30T20:59:30.078Z,65.69
2018-03-30T21:01:56.922Z,65.67
2018-03-30T21:04:23.783Z,65.76
2018-03-30T21:06:51.391Z,65.39
2018-03-30T21:09:18.239Z,65.25
2018-03-30T21:11:45.092Z,65.13
2018-03-30T21:14:11.965Z,65.27
2018-03-30T21:16:38.778Z,65.37
2018-03-30T21:19:05.622Z,65.12
2018-03-30T21:21:32.474Z,65.23
2018-03-30T21:23:59.315Z,65.45
2018-03-30T21:26:26.210Z,65.15
2018-03-30T21:28:53.058Z,65.35
2018-03-30T21:31:19.906Z,65.12
2018-03-30T21:33:46.842Z,65.18
2018-03-30T21:36:13.686Z,65.03
2018-03-30T21:38:40.538Z,64.99
2018-03-30T21:41:07.390Z,64.94
2018-03-30T21:43:34.234Z,65.36
2018-03-30T21:46:01.156Z,65.43
2018-03-30T21:48:28.012Z,65.16
2018-03-30T21:50:54.862Z,65.38
2018-03-30T21:53:21.703Z,65.44
2018-03-30T21:55:48.559Z,65.53
2018-03-30T21:58:15.422Z,65.42
2018-03-30T22:00:42.271Z,65.46
2018-03-30T22:03:09.125Z,65.41
2018-03-30T22:05:36.051Z,65.35
2018-03-30T22:08:03.015Z,65.43
2018-03-30T22:10:29.866Z,65.30
2018-03-30T22:12:56.715Z,65.34
2018-03-30T22:15:23.574Z,65.40
2018-03-30T22:17:50.412Z,65.33
2018-03-30T22:20:17.258Z,64.98
2018-03-30T22:22:44.102Z,64.87
2018-03-30T22:25:10.959Z,65.06
2018-03-30T22:27:37.836Z,64.95
2018-03-30T22:30:04.780Z,65.09
2018-03-30T22:32:31.618Z,64.71
2018-03-30T22:34:58.467Z,64.70
2018-03-30T22:37:25.311Z,64.58
2018-03-30T22:39:52.182Z,64.23
2018-03-30T22:42:19.059Z,64.59
2018-03-30T22:44:45.899Z,64.27
2018-03-30T22:47:12.742Z,64.40
2018-03-30T22:49:39.577Z,64.06
2018-03-30T22:52:06.530Z,63.75
2018-03-30T22:54:33.369Z,63.73
2018-03-30T22:57:00.228Z,63.60
2018-03-30T22:59:27.172Z,63.51
2018-03-30T23:01:54.123Z,63.54
2018-03-30T23:04:20.992Z,63.94
2018-03-30T23:06:47.893Z,63.38
2018-03-30T23:09:14.740Z,63.43
2018-03-30T23:11:41.594Z,63.40
2018-03-30T23:14:08.430Z,63.36
2018-03-30T23:16:35.283Z,63.29
2018-03-30T23:19:02.118Z,63.32
2018-03-30T23:21:29.151Z,63.34
2018-03-30T23:23:55.986Z,63.61
2018-03-30T23:26:22.837Z,63.55
2018-03-30T23:28:49.674Z,63.48
2018-03-30T23:31:16.522Z,63.44
2018-03-30T23:33:43.375Z,63.20
2018-03-30T23:36:10.227Z,63.23
2018-03-30T23:38:37.067Z,63.52
2018-03-30T23:41:04.101Z,63.66
2018-03-30T23:43:31.034Z,63.42
2018-03-30T23:45:57.927Z,63.86
2018-03-30T23:48:24.771Z,63.87
2018-03-30T23:50:51.711Z,63.69
2018-03-30T23:53:18.962Z,63.86
2018-03-30T23:55:45.826Z,64.07
2018-03-30T23:58:12.674Z,64.14
